createdAt,value
2022-10-21T00:02:09.526Z,60.73
2022-10-21T00:04:36.112Z,59.89
2022-10-21T00:07:02.779Z,60.28
2022-10-21T00:09:29.529Z,60.48
2022-10-21T00:11:56.181Z,59.64
2022-10-21T00:14:22.899Z,62.57
2022-10-21T00:16:49.649Z,61.46
2022-10-21T00:19:16.337Z,60.90
2022-10-21T00:21:42.999Z,60.28
2022-10-21T00:24:09.631Z,60.09
2022-10-21T00:26:38.412Z,59.82
2022-10-21T00:29:05.389Z,59.69
2022-10-21T00:31:32.089Z,62.29
2022-10-21T00:33:58.795Z,60.12
2022-10-21T00:36:25.444Z,59.34
2022-10-21T00:38:52.075Z,60.00
2022-10-21T00:41:19.498Z,59.10
2022-10-21T00:43:53.328Z,59.38
2022-10-21T00:46:22.312Z,60.25
2022-10-21T00:48:52.631Z,62.06
2022-10-21T00:51:19.328Z,60.51
2022-10-21T00:53:48.077Z,62.63
2022-10-21T00:56:18.414Z,60.94
2022-10-21T00:58:46.717Z,61.39
2022-10-21T01:01:17.754Z,61.33
2022-10-21T01:03:47.542Z,60.89
2022-10-21T01:06:15.918Z,59.62
2022-10-21T01:08:42.694Z,59.54
2022-10-21T01:11:13.142Z,58.48
2022-10-21T01:13:44.218Z,57.81
2022-10-21T01:16:10.779Z,57.70
2022-10-21T01:18:42.619Z,61.72
2022-10-21T01:21:24.480Z,60.08
2022-10-21T01:23:51.093Z,60.56
2022-10-21T01:26:36.706Z,60.90
2022-10-21T01:29:06.090Z,62.16
2022-10-21T01:31:39.930Z,63.78
2022-10-21T01:34:15.928Z,62.47
2022-10-21T01:36:46.909Z,61.10
2022-10-21T01:39:16.529Z,62.10
2022-10-21T01:41:57.099Z,62.91
2022-10-21T01:44:27.852Z,61.07
2022-10-21T01:46:57.453Z,61.00
2022-10-21T01:49:28.393Z,61.09
2022-10-21T01:51:55.101Z,61.40
2022-10-21T01:54:28.281Z,63.79
2022-10-21T01:56:55.978Z,62.03
2022-10-21T01:59:25.387Z,63.55
2022-10-21T02:01:52.439Z,65.44
2022-10-21T02:04:19.448Z,64.06
2022-10-21T02:06:46.126Z,64.33
2022-10-21T02:09:12.811Z,65.17
2022-10-21T02:11:41.824Z,65.07
2022-10-21T02:14:15.155Z,63.80
2022-10-21T02:16:41.892Z,61.50
2022-10-21T02:19:15.043Z,61.88
2022-10-21T02:21:41.801Z,60.82
2022-10-21T02:24:16.520Z,61.50
2022-10-21T02:26:43.383Z,60.24
2022-10-21T02:29:14.022Z,59.66
2022-10-21T02:32:00.631Z,58.67
2022-10-21T02:34:43.668Z,57.68
2022-10-21T02:37:13.579Z,57.39
2022-10-21T03:02:42.410Z,60.71
2022-10-21T03:17:42.222Z,58.16
2022-10-21T03:20:58.907Z,58.47
2022-10-21T03:23:28.856Z,59.78
2022-10-21T03:25:56.582Z,58.08
2022-10-21T03:28:23.665Z,57.36
2022-10-21T03:30:50.480Z,57.95
2022-10-21T03:33:17.679Z,58.06
2022-10-21T03:35:44.454Z,59.45
2022-10-21T03:38:11.492Z,58.33
2022-10-21T03:40:38.402Z,60.47
2022-10-21T03:43:10.050Z,58.42
2022-10-21T03:45:36.987Z,58.48
2022-10-21T03:48:05.263Z,58.03
2022-10-21T04:03:25.964Z,59.19
2022-10-21T04:06:07.854Z,58.44
2022-10-21T04:20:54.225Z,59.84
2022-10-21T04:24:19.566Z,59.29
2022-10-21T04:26:46.371Z,58.32
2022-10-21T04:29:13.324Z,60.08
2022-10-21T04:31:40.071Z,58.44
2022-10-21T04:34:06.994Z,57.90
2022-10-21T04:36:35.673Z,58.23
2022-10-21T04:39:09.885Z,57.78
2022-10-21T04:41:37.848Z,58.01
2022-10-21T04:44:06.588Z,59.31
2022-10-21T04:46:33.484Z,58.13
2022-10-21T04:49:09.585Z,58.21
2022-10-21T04:51:36.536Z,57.69
2022-10-21T04:54:03.918Z,57.45
2022-10-21T04:56:30.747Z,57.58
2022-10-21T04:58:57.921Z,58.38
2022-10-21T05:01:25.093Z,59.39
2022-10-21T05:03:56.287Z,62.06
2022-10-21T05:06:23.508Z,60.74
2022-10-21T05:08:55.767Z,61.15
2022-10-21T05:11:22.652Z,62.47
2022-10-21T05:13:49.562Z,61.65
2022-10-21T05:16:21.192Z,62.86
2022-10-21T05:18:50.374Z,64.02
2022-10-21T05:21:20.173Z,66.40
2022-10-21T05:23:58.572Z,65.73
2022-10-21T05:26:25.670Z,63.90
2022-10-21T05:28:52.757Z,63.06
2022-10-21T05:31:19.608Z,61.49
2022-10-21T05:33:46.550Z,61.33
2022-10-21T05:36:13.423Z,61.10
2022-10-21T05:38:40.736Z,60.44
2022-10-21T05:41:08.493Z,59.97
2022-10-21T05:43:36.215Z,60.40
2022-10-21T05:46:11.200Z,59.46
2022-10-21T05:48:38.384Z,60.21
2022-10-21T05:54:25.448Z,58.15
2022-10-21T06:10:28.167Z,61.61
2022-10-21T06:21:41.719Z,62.21
2022-10-21T06:24:33.111Z,62.78
2022-10-21T06:36:11.162Z,60.94
2022-10-21T06:53:06.414Z,60.40
2022-10-21T06:59:03.211Z,57.92
2022-10-21T07:05:16.156Z,58.84
2022-10-21T07:14:27.931Z,61.11
2022-10-21T07:17:02.698Z,59.32
2022-10-21T07:23:03.473Z,59.46
2022-10-21T07:25:55.529Z,57.94
2022-10-21T07:28:27.382Z,60.35
2022-10-21T07:31:33.507Z,59.86
2022-10-21T07:43:32.634Z,57.38
2022-10-21T07:51:59.561Z,59.33
2022-10-21T07:54:47.822Z,60.05
2022-10-21T08:04:37.907Z,57.73
2022-10-21T08:07:39.164Z,57.87
2022-10-21T08:10:11.312Z,58.28
2022-10-21T08:22:47.771Z,58.42
2022-10-21T08:32:18.842Z,57.91
2022-10-21T08:50:22.185Z,56.86
2022-10-21T08:56:03.962Z,56.45
2022-10-21T08:59:06.522Z,56.23
2022-10-21T09:02:08.109Z,55.29
2022-10-21T09:05:08.981Z,55.21
2022-10-21T09:07:48.971Z,55.96
2022-10-21T09:10:42.713Z,55.56
2022-10-21T09:13:23.710Z,54.94
2022-10-21T09:16:15.203Z,54.49
2022-10-21T09:18:54.381Z,54.59
2022-10-21T09:21:42.032Z,55.23
2022-10-21T09:24:28.443Z,55.30
2022-10-21T09:27:19.490Z,55.74
2022-10-21T09:32:54.112Z,56.47
2022-10-21T09:35:34.155Z,54.71
2022-10-21T09:38:17.332Z,55.04
2022-10-21T09:40:50.731Z,53.41
2022-10-21T09:43:18.891Z,54.73
2022-10-21T09:45:53.563Z,53.94
2022-10-21T09:48:27.200Z,53.28
2022-10-21T09:51:06.199Z,55.40
2022-10-21T09:54:07.255Z,54.42
2022-10-21T09:59:30.344Z,54.20
2022-10-21T10:02:14.040Z,54.45
2022-10-21T10:04:43.142Z,55.69
2022-10-21T10:07:31.351Z,54.82
2022-10-21T10:10:09.365Z,54.91
2022-10-21T10:13:21.283Z,54.08
2022-10-21T10:15:48.572Z,54.61
2022-10-21T10:18:23.355Z,54.92
2022-10-21T10:25:02.459Z,54.90
2022-10-21T10:28:12.830Z,55.42
2022-10-21T10:31:05.267Z,55.01
2022-10-21T10:33:45.805Z,54.63
2022-10-21T10:36:25.591Z,54.32
2022-10-21T10:39:09.569Z,54.76
2022-10-21T10:41:46.640Z,55.85
2022-10-21T10:44:35.189Z,55.15
2022-10-21T10:47:06.492Z,55.86
2022-10-21T10:50:03.314Z,53.77
2022-10-21T10:52:30.880Z,53.63
2022-10-21T10:58:40.470Z,53.66
2022-10-21T11:01:19.814Z,53.21
2022-10-21T11:04:06.929Z,53.24
2022-10-21T11:07:15.810Z,53.68
2022-10-21T11:09:56.930Z,52.20
2022-10-21T11:12:40.048Z,52.01
2022-10-21T11:15:14.818Z,52.35
2022-10-21T11:17:48.059Z,51.85
2022-10-21T11:20:37.232Z,52.55
2022-10-21T11:24:27.151Z,50.91
2022-10-21T11:27:13.433Z,50.27
2022-10-21T11:30:00.342Z,49.66
2022-10-21T11:32:33.218Z,50.95
2022-10-21T11:35:05.692Z,50.04
2022-10-21T11:41:10.565Z,48.72
2022-10-21T11:44:03.942Z,49.13
2022-10-21T11:50:09.291Z,49.87
2022-10-21T12:05:31.802Z,50.76
2022-10-21T12:11:53.732Z,50.18
2022-10-21T12:17:28.959Z,47.85
2022-10-21T12:20:07.747Z,49.12
2022-10-21T12:23:03.510Z,49.08
2022-10-21T12:25:39.976Z,48.51
2022-10-21T12:28:36.820Z,48.44
2022-10-21T12:31:20.623Z,48.20
2022-10-21T12:44:05.320Z,49.35
2022-10-21T12:46:46.820Z,47.56
2022-10-21T12:52:42.981Z,49.51
2022-10-21T13:05:20.846Z,48.88
2022-10-21T13:08:27.570Z,48.49
2022-10-21T13:14:43.480Z,50.65
2022-10-21T13:24:03.469Z,47.90
2022-10-21T13:46:10.422Z,50.02
2022-10-21T13:55:07.139Z,50.73
2022-10-21T13:58:25.259Z,49.01
2022-10-21T14:01:40.584Z,50.40
2022-10-21T15:01:22.724Z,52.62
2022-10-21T15:03:51.470Z,52.98
2022-10-21T15:06:26.411Z,53.29
2022-10-21T15:08:56.195Z,54.22
2022-10-21T15:11:43.462Z,53.63
2022-10-21T15:14:29.185Z,53.47
2022-10-21T15:16:57.718Z,53.67
2022-10-21T15:19:29.497Z,54.02
2022-10-21T15:22:01.209Z,55.54
2022-10-21T15:24:43.311Z,56.02
2022-10-21T15:27:25.616Z,55.42
2022-10-21T15:29:52.864Z,55.78
2022-10-21T15:32:24.344Z,55.66
2022-10-21T15:34:54.514Z,56.40
2022-10-21T15:37:22.673Z,55.17
2022-10-21T15:39:58.949Z,54.75
2022-10-21T15:42:45.130Z,56.92
2022-10-21T15:45:19.037Z,56.17
2022-10-21T15:47:52.706Z,55.70
2022-10-21T15:50:28.402Z,56.33
2022-10-21T15:55:22.990Z,57.12
2022-10-21T15:57:49.995Z,56.64
2022-10-21T16:00:19.267Z,57.39
2022-10-21T16:02:51.291Z,57.16
2022-10-21T16:05:19.098Z,57.43
2022-10-21T16:07:46.210Z,58.76
2022-10-21T16:10:13.240Z,59.65
2022-10-21T16:12:43.110Z,58.53
2022-10-21T16:15:10.383Z,59.91
2022-10-21T16:17:37.563Z,57.09
2022-10-21T16:20:07.020Z,58.34
2022-10-21T16:22:33.880Z,59.69
2022-10-21T16:25:01.132Z,58.22
2022-10-21T16:27:43.920Z,57.53
2022-10-21T16:30:35.090Z,58.91
2022-10-21T16:33:12.001Z,59.07
2022-10-21T16:35:41.426Z,58.57
2022-10-21T16:38:11.860Z,59.25
2022-10-21T16:40:41.242Z,60.00
2022-10-21T16:43:10.369Z,59.39
2022-10-21T16:45:40.359Z,59.06
2022-10-21T16:48:09.613Z,58.76
2022-10-21T16:50:46.223Z,58.52
2022-10-21T16:53:31.821Z,58.13
2022-10-21T16:58:32.491Z,58.60
2022-10-21T17:01:07.900Z,57.40
2022-10-21T17:03:36.691Z,59.75
2022-10-21T17:06:14.590Z,59.24
2022-10-21T17:08:47.430Z,59.60
2022-10-21T17:11:29.725Z,60.38
2022-10-21T17:14:01.793Z,60.78
2022-10-21T17:16:37.322Z,59.91
2022-10-21T17:19:10.639Z,59.60
2022-10-21T17:21:44.928Z,60.67
2022-10-21T17:24:18.375Z,59.00
2022-10-21T17:26:51.058Z,58.96
2022-10-21T17:29:27.316Z,57.57
2022-10-21T17:32:04.584Z,58.35
2022-10-21T17:34:42.911Z,59.35
2022-10-21T17:37:16.571Z,57.91
2022-10-21T17:39:44.742Z,59.23
2022-10-21T17:42:17.254Z,59.48
2022-10-21T17:44:44.984Z,59.22
2022-10-21T17:47:14.138Z,58.33
2022-10-21T17:49:41.987Z,59.17
2022-10-21T17:52:12.146Z,58.56
2022-10-21T17:54:41.690Z,59.64
2022-10-21T17:57:08.728Z,58.88
2022-10-21T17:59:35.843Z,58.46
2022-10-21T18:02:02.797Z,58.64
2022-10-21T18:04:32.796Z,60.20
2022-10-21T18:07:02.374Z,60.90
2022-10-21T18:09:29.421Z,59.15
2022-10-21T18:11:58.597Z,59.28
2022-10-21T18:14:30.360Z,60.31
2022-10-21T18:16:57.368Z,58.40
2022-10-21T18:19:24.437Z,59.97
2022-10-21T18:21:55.198Z,58.13
2022-10-21T18:24:27.583Z,60.23
2022-10-21T18:55:12.306Z,59.90
2022-10-21T18:57:46.343Z,62.07
2022-10-21T19:00:13.347Z,61.24
2022-10-21T19:02:43.241Z,62.04
2022-10-21T19:05:10.416Z,60.94
2022-10-21T19:07:37.568Z,59.87
2022-10-21T19:10:05.925Z,58.83
2022-10-21T19:12:32.842Z,57.84
2022-10-21T19:14:59.708Z,57.91
2022-10-21T19:17:30.103Z,57.56
2022-10-21T19:19:59.304Z,57.07
2022-10-21T19:24:56.964Z,57.12
2022-10-21T19:27:26.054Z,57.35
2022-10-21T19:29:53.163Z,58.25
2022-10-21T19:32:24.507Z,59.21
2022-10-21T19:34:53.599Z,58.09
2022-10-21T19:37:22.777Z,57.19
2022-10-21T19:39:49.811Z,56.39
2022-10-21T19:42:17.376Z,56.30
2022-10-21T19:44:47.997Z,57.78
2022-10-21T19:47:17.918Z,57.20
2022-10-21T19:49:47.037Z,56.46
2022-10-21T19:52:17.003Z,56.32
2022-10-21T19:54:44.968Z,56.08
2022-10-21T19:59:56.118Z,58.61
2022-10-21T20:02:36.443Z,58.41
2022-10-21T20:05:08.341Z,58.32
2022-10-21T20:07:43.645Z,58.15
2022-10-21T20:10:18.500Z,58.28
2022-10-21T20:12:47.745Z,58.00
2022-10-21T20:15:17.508Z,57.98
2022-10-21T20:17:48.085Z,57.31
2022-10-21T20:20:17.487Z,57.09
2022-10-21T20:22:48.068Z,57.25
2022-10-21T20:25:17.571Z,57.18
2022-10-21T20:27:48.391Z,57.19
2022-10-21T20:30:19.645Z,57.15
2022-10-21T20:32:53.091Z,57.26
2022-10-21T20:35:23.231Z,57.40
2022-10-21T20:37:53.121Z,57.16
2022-10-21T20:40:31.835Z,57.77
2022-10-21T20:42:58.909Z,57.48
2022-10-21T20:45:29.231Z,57.11
2022-10-21T20:47:56.200Z,57.71
2022-10-21T20:50:23.410Z,56.99
2022-10-21T20:52:51.527Z,57.16
2022-10-21T20:55:24.713Z,58.36
2022-10-21T20:57:51.629Z,58.01
2022-10-21T21:00:18.666Z,57.65
2022-10-21T21:02:48.242Z,57.72
2022-10-21T21:05:17.203Z,58.53
2022-10-21T21:07:44.987Z,59.58
2022-10-21T21:10:11.820Z,58.76
2022-10-21T21:12:39.049Z,59.09
2022-10-21T21:15:06.303Z,58.80
2022-10-21T21:17:37.183Z,59.47
2022-10-21T21:20:04.416Z,59.00
2022-10-21T21:22:34.326Z,60.78
2022-10-21T21:25:01.762Z,60.38
2022-10-21T21:27:29.055Z,59.26
2022-10-21T21:29:56.115Z,58.93
2022-10-21T21:32:25.293Z,58.68
2022-10-21T21:34:55.961Z,58.39
2022-10-21T21:37:26.685Z,59.01
2022-10-21T21:39:54.078Z,58.40
2022-10-21T21:42:20.986Z,58.29
2022-10-21T21:44:48.277Z,58.49
2022-10-21T21:47:18.438Z,58.45
2022-10-21T21:49:45.303Z,59.30
2022-10-21T21:52:13.876Z,59.04
2022-10-21T21:54:42.996Z,58.55
2022-10-21T21:57:26.837Z,59.29
2022-10-21T21:59:54.986Z,59.32
2022-10-21T22:02:32.073Z,60.77
2022-10-21T22:05:01.275Z,60.47
2022-10-21T22:07:29.623Z,60.60
2022-10-21T22:09:58.423Z,60.06
2022-10-21T22:12:25.695Z,60.81
2022-10-21T22:14:55.147Z,60.79
2022-10-21T22:17:22.427Z,60.19
2022-10-21T22:19:53.695Z,60.06
2022-10-21T22:22:23.771Z,60.72
2022-10-21T22:24:53.843Z,61.81
2022-10-21T22:27:20.790Z,61.64
2022-10-21T22:29:47.843Z,61.50
2022-10-21T22:32:17.960Z,61.55
2022-10-21T22:34:45.603Z,60.76
2022-10-21T22:37:12.506Z,60.69
2022-10-21T22:39:39.629Z,60.81
2022-10-21T22:42:08.830Z,61.24
2022-10-21T22:44:35.798Z,62.00
2022-10-21T22:47:08.914Z,61.71
2022-10-21T22:49:36.043Z,61.35
2022-10-21T22:52:03.046Z,60.74
2022-10-21T22:54:48.637Z,60.30
2022-10-21T22:57:22.256Z,62.24
2022-10-21T22:59:53.106Z,63.29
2022-10-21T23:02:23.726Z,61.87
2022-10-21T23:04:50.719Z,63.22
2022-10-21T23:07:18.064Z,62.33
2022-10-21T23:09:47.431Z,62.68
2022-10-21T23:12:17.215Z,63.85
2022-10-21T23:14:44.411Z,64.29
2022-10-21T23:17:11.553Z,64.67
2022-10-21T23:19:38.909Z,63.29
2022-10-21T23:22:08.477Z,63.96
2022-10-21T23:24:40.556Z,65.11
2022-10-21T23:27:08.122Z,64.26
2022-10-21T23:29:58.126Z,64.79
2022-10-21T23:32:30.865Z,64.09
2022-10-21T23:35:02.586Z,63.57
2022-10-21T23:37:29.656Z,63.32
2022-10-21T23:39:56.581Z,63.20
2022-10-21T23:42:26.505Z,63.12
2022-10-21T23:44:53.412Z,63.01
2022-10-21T23:47:27.359Z,62.79
2022-10-21T23:49:58.500Z,61.89
2022-10-21T23:52:33.743Z,61.86
2022-10-21T23:55:08.366Z,61.72
2022-10-21T23:57:42.653Z,61.13
